Time;durP1;ratioP1;P1;durP2;ratioP2;P2;SDS_P1;SDS_P2;PMS_P1;PMS_P2;Temp;Humidity;BMP_temperature;BMP_pressure;BME280_temperature;BME280_humidity;BME280_pressure;Samples;Min_cycle;Max_cycle;Signal;HPM_P1;HPM_P2
2024/01/30 00:00:59;;;;;;;8.23;7.30;;;5.40;29.60;;;;;;5018771;28;20444;-69
2024/01/30 00:03:24;;;;;;;11.77;8.30;;;5.30;21.30;;;;;;5013221;28;20845;-69
2024/01/30 00:05:50;;;;;;;11.67;7.40;;;5.30;20.80;;;;;;5012640;28;20269;-69
2024/01/30 00:08:15;;;;;;;8.57;7.67;;;5.40;23.70;;;;;;5015060;28;20175;-69
2024/01/30 00:10:41;;;;;;;11.93;7.67;;;5.50;20.60;;;;;;5012103;28;20233;-69
2024/01/30 00:13:06;;;;;;;8.43;7.63;;;5.50;1.00;;;;;;5013034;28;20177;-69
2024/01/30 00:15:34;;;;;;;8.57;7.23;;;5.50;2.60;;;;;;5012999;28;20167;-69
2024/01/30 00:18:00;;;;;;;11.70;8.60;;;5.50;6.10;;;;;;5010478;28;20182;-69
2024/01/30 00:20:25;;;;;;;8.00;6.90;;;5.60;4.10;;;;;;5011830;28;20437;-69
2024/01/30 00:22:51;;;;;;;9.80;8.27;;;5.50;1.00;;;;;;5007017;28;20180;-69
2024/01/30 00:25:16;;;;;;;7.60;6.87;;;5.50;1.00;;;;;;5010535;28;20180;-69
2024/01/30 00:27:42;;;;;;;7.93;7.23;;;5.50;1.00;;;;;;5000158;28;20233;-69
2024/01/30 00:30:08;;;;;;;10.60;7.70;;;5.50;1.00;;;;;;5009017;28;20256;-69
2024/01/30 00:32:33;;;;;;;7.70;6.90;;;5.50;1.00;;;;;;5012664;28;20662;-69
2024/01/30 00:34:59;;;;;;;9.73;7.27;;;5.50;1.00;;;;;;5011946;28;20426;-69
2024/01/30 00:37:24;;;;;;;11.40;8.00;;;5.50;1.00;;;;;;5010276;28;20201;-69
2024/01/30 00:39:50;;;;;;;8.90;7.30;;;5.50;1.00;;;;;;5010833;28;20674;-69
2024/01/30 00:42:15;;;;;;;8.80;7.70;;;5.50;1.00;;;;;;5009830;28;20175;-69
2024/01/30 00:44:41;;;;;;;8.50;7.73;;;5.60;1.00;;;;;;5012254;28;20237;-69
2024/01/30 00:47:06;;;;;;;7.47;6.37;;;5.70;1.00;;;;;;5011470;28;20223;-69
2024/01/30 00:49:32;;;;;;;8.50;7.20;;;5.70;1.00;;;;;;5010568;28;20194;-69
2024/01/30 00:51:57;;;;;;;8.07;7.00;;;5.70;1.00;;;;;;5010544;28;20179;-69
2024/01/30 00:54:23;;;;;;;8.73;7.87;;;5.80;1.00;;;;;;5007376;28;20253;-69
2024/01/30 00:56:48;;;;;;;7.57;6.80;;;5.80;1.00;;;;;;5000690;28;20661;-69
2024/01/30 00:59:14;;;;;;;8.20;7.40;;;5.70;1.00;;;;;;4992769;28;20171;-69
2024/01/30 01:01:40;;;;;;;9.53;8.13;;;5.70;1.00;;;;;;5011633;28;20221;-69
2024/01/30 01:04:05;;;;;;;7.83;7.13;;;5.70;1.00;;;;;;5011594;28;20185;-69
2024/01/30 01:06:31;;;;;;;8.70;7.80;;;5.70;1.00;;;;;;5009906;28;20203;-69
2024/01/30 01:08:56;;;;;;;9.40;8.07;;;5.70;1.00;;;;;;5012427;28;20186;-69
2024/01/30 01:11:22;;;;;;;8.60;7.67;;;5.80;1.00;;;;;;5011793;28;20210;-69
2024/01/30 01:13:48;;;;;;;9.27;6.80;;;5.70;1.00;;;;;;5009695;28;20660;-69
2024/01/30 01:16:13;;;;;;;8.80;8.07;;;5.70;1.00;;;;;;5011166;28;20218;-69
2024/01/30 01:18:39;;;;;;;7.67;5.90;;;5.70;1.00;;;;;;5011878;28;20785;-69
2024/01/30 01:21:04;;;;;;;6.80;6.10;;;5.70;1.00;;;;;;5011349;28;20648;-69
2024/01/30 01:23:30;;;;;;;10.90;7.80;;;5.70;1.00;;;;;;5013375;28;20182;-69
2024/01/30 01:25:55;;;;;;;9.83;8.93;;;5.80;1.00;;;;;;5010308;28;20222;-70
2024/01/30 01:28:21;;;;;;;8.27;7.03;;;5.70;1.00;;;;;;5011660;28;20762;-70
2024/01/30 01:30:46;;;;;;;7.03;6.13;;;5.70;1.00;;;;;;5014063;28;20277;-69
2024/01/30 01:33:14;;;;;;;7.13;6.17;;;5.70;1.00;;;;;;5011705;28;20186;-69
2024/01/30 01:35:40;;;;;;;8.40;6.20;;;5.80;1.00;;;;;;5006500;28;20227;-70
2024/01/30 01:38:05;;;;;;;9.33;5.80;;;5.80;1.00;;;;;;5008615;28;20476;-69
2024/01/30 01:40:31;;;;;;;6.47;5.80;;;5.70;1.00;;;;;;5002812;28;20446;-69
2024/01/30 01:42:56;;;;;;;10.27;9.30;;;5.70;1.00;;;;;;5003995;28;20199;-69
2024/01/30 01:45:22;;;;;;;8.30;7.47;;;5.60;1.00;;;;;;4997867;28;20231;-69
2024/01/30 01:47:52;;;;;;;8.10;7.33;;;5.60;1.00;;;;;;5007308;28;20227;-70
2024/01/30 01:50:19;;;;;;;7.37;6.67;;;5.50;1.00;;;;;;5010279;28;20194;-70
2024/01/30 01:52:48;;;;;;;7.73;6.40;;;5.50;1.00;;;;;;5005095;28;20468;-69
2024/01/30 01:55:15;;;;;;;7.83;7.07;;;5.50;1.00;;;;;;5010658;28;20449;-69
2024/01/30 01:57:41;;;;;;;6.90;6.20;;;5.50;1.00;;;;;;5008138;28;20434;-70
2024/01/30 02:00:10;;;;;;;8.47;7.47;;;5.50;1.00;;;;;;5007558;28;20457;-70
2024/01/30 02:02:36;;;;;;;6.77;5.90;;;5.50;1.00;;;;;;5011000;28;20908;-70
2024/01/30 02:05:02;;;;;;;7.17;6.43;;;5.50;1.00;;;;;;5008144;28;20446;-69
2024/01/30 02:07:28;;;;;;;12.03;6.27;;;5.60;1.00;;;;;;4995305;28;20449;-70
2024/01/30 02:09:54;;;;;;;5.90;5.40;;;5.60;1.00;;;;;;5002090;28;20504;-69
2024/01/30 02:12:20;;;;;;;6.60;6.00;;;5.60;1.00;;;;;;5007631;28;20424;-69
2024/01/30 02:14:49;;;;;;;7.50;6.67;;;5.40;1.00;;;;;;5015586;28;20437;-70
2024/01/30 02:17:16;;;;;;;8.60;6.70;;;5.40;1.10;;;;;;5011699;28;20611;-70
2024/01/30 02:19:41;;;;;;;6.70;6.10;;;5.30;1.00;;;;;;5004645;28;20532;-69
2024/01/30 02:22:07;;;;;;;9.63;6.73;;;5.40;1.00;;;;;;5009429;28;20430;-70
2024/01/30 02:24:33;;;;;;;7.83;6.90;;;5.40;1.00;;;;;;5012869;28;20183;-69
2024/01/30 02:26:58;;;;;;;8.70;6.90;;;5.40;1.00;;;;;;5009861;28;20838;-70
2024/01/30 02:29:24;;;;;;;7.93;7.07;;;5.30;8.00;;;;;;5014272;28;20628;-70
2024/01/30 02:31:50;;;;;;;7.50;6.80;;;5.20;14.80;;;;;;4999771;28;20692;-69
2024/01/30 02:34:16;;;;;;;9.40;7.60;;;5.20;23.40;;;;;;5007514;28;20176;-69
2024/01/30 02:36:45;;;;;;;7.73;6.50;;;5.20;27.60;;;;;;5006089;28;20203;-69
2024/01/30 02:39:11;;;;;;;8.50;6.37;;;5.20;25.10;;;;;;5012296;28;20421;-69
2024/01/30 02:41:36;;;;;;;8.00;6.50;;;5.00;28.70;;;;;;5013334;28;20434;-69
2024/01/30 02:44:03;;;;;;;12.33;6.60;;;5.00;45.80;;;;;;5000052;28;20261;-69
2024/01/30 02:46:29;;;;;;;9.13;7.70;;;4.90;50.60;;;;;;5012463;28;20206;-70
2024/01/30 02:48:54;;;;;;;7.57;6.87;;;4.90;57.70;;;;;;5014088;28;20437;-69
2024/01/30 02:51:20;;;;;;;8.73;7.20;;;4.90;44.70;;;;;;5009004;28;20206;-70
2024/01/30 02:53:45;;;;;;;8.73;7.43;;;4.90;51.00;;;;;;5013961;28;20223;-70
2024/01/30 02:56:11;;;;;;;8.47;6.57;;;4.90;48.60;;;;;;5012596;28;20199;-69
2024/01/30 02:58:37;;;;;;;7.77;6.93;;;4.90;52.00;;;;;;5020287;28;20311;-69
2024/01/30 03:01:03;;;;;;;8.30;7.50;;;4.80;54.60;;;;;;5011054;28;20995;-69
2024/01/30 03:03:28;;;;;;;9.33;7.50;;;4.80;53.60;;;;;;5006230;28;20211;-70
2024/01/30 03:05:54;;;;;;;11.13;8.23;;;4.80;56.70;;;;;;5004453;28;20199;-69
2024/01/30 03:08:20;;;;;;;10.80;7.83;;;4.70;53.00;;;;;;5015645;28;20178;-70
2024/01/30 03:10:45;;;;;;;11.07;8.07;;;4.70;53.10;;;;;;5009303;28;20202;-70
2024/01/30 03:13:11;;;;;;;8.80;7.90;;;4.70;49.00;;;;;;5005779;28;20566;-69
2024/01/30 03:15:36;;;;;;;9.53;8.17;;;4.70;50.50;;;;;;4998038;28;20671;-69
2024/01/30 03:18:03;;;;;;;9.90;8.87;;;4.70;58.80;;;;;;5012565;28;20516;-69
2024/01/30 03:20:29;;;;;;;8.93;8.03;;;4.70;69.00;;;;;;5013639;28;20189;-69
2024/01/30 03:22:55;;;;;;;10.50;9.33;;;4.70;58.80;;;;;;5006610;28;20501;-69
2024/01/30 03:25:21;;;;;;;10.60;9.60;;;4.60;61.30;;;;;;5012364;28;20442;-70
2024/01/30 03:27:46;;;;;;;8.70;7.80;;;4.50;59.20;;;;;;5000535;28;20195;-69
2024/01/30 03:30:12;;;;;;;11.70;8.07;;;4.50;72.20;;;;;;5005518;28;20198;-69
2024/01/30 03:32:37;;;;;;;9.60;7.73;;;4.50;77.40;;;;;;5015239;28;20644;-69
2024/01/30 03:35:03;;;;;;;9.40;8.50;;;4.40;84.60;;;;;;5012660;28;20258;-69
2024/01/30 03:37:29;;;;;;;16.70;7.50;;;4.40;88.20;;;;;;5007180;28;20226;-69
2024/01/30 03:39:55;;;;;;;11.90;8.77;;;4.30;92.60;;;;;;5013247;28;21008;-70
2024/01/30 03:42:20;;;;;;;8.60;7.80;;;4.20;98.30;;;;;;5013641;28;20187;-69
2024/01/30 03:44:46;;;;;;;10.43;9.13;;;4.20;99.90;;;;;;4999884;28;20226;-69
2024/01/30 03:47:12;;;;;;;11.77;8.50;;;4.20;99.90;;;;;;5011160;28;20207;-69
2024/01/30 03:49:37;;;;;;;11.20;9.40;;;4.20;99.90;;;;;;5012056;28;20659;-69
2024/01/30 03:52:03;;;;;;;9.90;8.30;;;4.30;99.90;;;;;;5006542;28;20341;-69
2024/01/30 03:54:29;;;;;;;9.50;8.40;;;4.20;99.90;;;;;;5006739;28;20614;-70
2024/01/30 03:56:54;;;;;;;10.93;8.80;;;4.20;99.90;;;;;;5010615;28;20540;-69
2024/01/30 03:59:23;;;;;;;10.33;8.37;;;4.20;99.90;;;;;;5005141;28;20181;-69
2024/01/30 04:01:50;;;;;;;10.60;8.67;;;4.20;99.90;;;;;;5011722;28;20555;-70
2024/01/30 04:04:16;;;;;;;10.27;8.33;;;4.20;99.90;;;;;;5007337;28;20433;-70
2024/01/30 04:06:41;;;;;;;9.50;8.50;;;4.20;99.90;;;;;;5008637;28;20458;-70
2024/01/30 04:09:07;;;;;;;9.57;8.43;;;4.20;99.90;;;;;;5011365;28;20194;-69
2024/01/30 04:11:32;;;;;;;9.87;8.73;;;4.20;99.90;;;;;;5012535;28;20218;-70
2024/01/30 04:13:58;;;;;;;10.63;8.33;;;4.10;99.90;;;;;;5010416;28;20174;-70
2024/01/30 04:16:23;;;;;;;9.80;8.80;;;4.10;99.90;;;;;;5002889;28;20209;-70
2024/01/30 04:18:49;;;;;;;10.70;8.67;;;4.00;99.90;;;;;;5011785;28;20267;-69
2024/01/30 04:21:14;;;;;;;12.20;8.87;;;4.00;99.90;;;;;;5011913;28;20195;-69
2024/01/30 04:23:41;;;;;;;9.10;8.20;;;3.90;99.90;;;;;;5010568;28;20182;-70
2024/01/30 04:26:07;;;;;;;11.03;8.53;;;4.00;99.90;;;;;;5004039;28;20639;-70
2024/01/30 04:28:32;;;;;;;11.80;9.60;;;4.00;99.90;;;;;;5009994;28;20474;-70
2024/01/30 04:30:58;;;;;;;14.80;11.00;;;4.00;99.90;;;;;;5010684;28;20210;-70
2024/01/30 04:33:23;;;;;;;16.60;10.17;;;4.00;99.90;;;;;;5004666;28;20245;-69
2024/01/30 04:35:49;;;;;;;10.13;9.13;;;4.00;99.90;;;;;;5006350;28;20676;-69
2024/01/30 04:38:14;;;;;;;12.20;9.83;;;4.00;99.90;;;;;;5011201;28;20191;-70
2024/01/30 04:40:40;;;;;;;10.77;9.77;;;4.00;99.90;;;;;;5015196;28;20184;-69
2024/01/30 04:43:06;;;;;;;13.20;10.03;;;3.90;99.90;;;;;;5013030;28;20186;-69
2024/01/30 04:45:31;;;;;;;10.17;9.10;;;3.90;99.90;;;;;;5012292;28;20598;-70
2024/01/30 04:47:57;;;;;;;13.53;11.10;;;3.90;99.90;;;;;;5006820;28;20179;-69
2024/01/30 04:50:23;;;;;;;11.60;10.40;;;3.80;99.90;;;;;;5008884;28;20214;-70
2024/01/30 04:52:49;;;;;;;13.80;10.83;;;3.80;99.90;;;;;;5004665;28;20178;-70
2024/01/30 04:55:14;;;;;;;11.63;9.83;;;3.80;99.90;;;;;;5008229;28;20431;-69
2024/01/30 04:57:40;;;;;;;12.83;11.63;;;3.70;99.90;;;;;;5013137;28;20209;-69
2024/01/30 05:00:06;;;;;;;16.53;10.47;;;3.60;99.90;;;;;;5008727;28;20189;-69
2024/01/30 05:02:32;;;;;;;11.83;10.23;;;3.60;99.90;;;;;;5010518;28;20190;-70
2024/01/30 05:04:58;;;;;;;11.77;10.20;;;3.60;99.90;;;;;;5010471;28;20434;-69
2024/01/30 05:07:24;;;;;;;11.67;9.57;;;3.60;99.90;;;;;;5005872;28;20298;-70
2024/01/30 05:09:50;;;;;;;12.07;10.40;;;3.50;99.90;;;;;;5004076;28;20499;-69
2024/01/30 05:12:15;;;;;;;11.20;10.07;;;3.60;99.90;;;;;;5010163;28;20835;-70
2024/01/30 05:14:41;;;;;;;13.20;9.60;;;3.50;99.90;;;;;;5010993;28;20639;-69
2024/01/30 05:17:08;;;;;;;12.50;9.53;;;3.50;99.90;;;;;;5005089;28;20620;-70
2024/01/30 05:19:33;;;;;;;10.27;9.27;;;3.50;99.90;;;;;;5009928;28;20179;-70
2024/01/30 05:21:59;;;;;;;11.70;10.10;;;3.50;99.90;;;;;;5009772;28;20440;-70
2024/01/30 05:24:24;;;;;;;13.03;11.07;;;3.50;99.90;;;;;;5011285;28;20175;-70
2024/01/30 05:26:51;;;;;;;10.37;8.80;;;3.50;99.90;;;;;;5009359;28;20723;-69
2024/01/30 05:29:16;;;;;;;9.70;8.80;;;3.50;99.90;;;;;;5011938;28;20167;-69
2024/01/30 05:31:42;;;;;;;11.40;8.87;;;3.50;99.90;;;;;;5012882;28;20526;-70
2024/01/30 05:34:08;;;;;;;10.90;9.60;;;3.50;99.90;;;;;;5006623;28;20254;-70
2024/01/30 05:36:34;;;;;;;9.70;8.70;;;3.50;99.90;;;;;;5011529;28;20197;-70
2024/01/30 05:39:00;;;;;;;10.60;9.00;;;3.60;99.90;;;;;;5011867;28;20425;-70
2024/01/30 05:41:25;;;;;;;14.30;9.40;;;3.60;99.90;;;;;;5013154;28;20214;-69
2024/01/30 05:43:51;;;;;;;9.40;8.43;;;3.60;99.90;;;;;;5013712;28;20183;-70
2024/01/30 05:46:16;;;;;;;9.33;8.10;;;3.60;99.90;;;;;;5014747;28;20253;-70
2024/01/30 05:48:42;;;;;;;11.93;8.80;;;3.50;99.90;;;;;;5022748;28;20648;-69
2024/01/30 05:51:08;;;;;;;9.50;8.60;;;3.60;99.90;;;;;;5022591;28;20194;-69
2024/01/30 05:53:34;;;;;;;10.10;8.50;;;3.60;99.90;;;;;;5015596;28;20179;-69
2024/01/30 05:56:01;;;;;;;11.00;8.47;;;3.60;99.90;;;;;;5014301;28;20465;-70
2024/01/30 05:58:27;;;;;;;12.13;8.63;;;3.60;99.90;;;;;;5023272;28;20237;-69
2024/01/30 06:00:52;;;;;;;11.70;8.30;;;3.60;99.90;;;;;;5013765;28;20477;-70
2024/01/30 06:03:18;;;;;;;10.70;9.60;;;3.60;99.90;;;;;;5011286;28;20247;-69
2024/01/30 06:05:43;;;;;;;12.73;9.23;;;3.60;99.90;;;;;;5015200;28;20198;-70
2024/01/30 06:08:09;;;;;;;11.30;9.03;;;3.50;99.90;;;;;;5016546;28;20175;-69
2024/01/30 06:10:34;;;;;;;10.07;8.67;;;3.50;99.90;;;;;;5022048;28;20276;-69
2024/01/30 06:13:00;;;;;;;13.40;8.63;;;3.50;99.90;;;;;;5014924;28;20183;-69
2024/01/30 06:15:26;;;;;;;10.57;9.07;;;3.50;99.90;;;;;;5013820;28;20179;-69
2024/01/30 06:17:51;;;;;;;9.70;8.77;;;3.50;99.90;;;;;;5014846;28;20502;-70
2024/01/30 06:20:17;;;;;;;9.43;8.53;;;3.60;99.90;;;;;;5014110;28;20187;-69
2024/01/30 06:22:43;;;;;;;9.90;8.80;;;3.60;99.90;;;;;;5015353;28;20678;-69
2024/01/30 06:25:09;;;;;;;13.50;9.23;;;3.60;99.90;;;;;;5012572;28;20449;-69
2024/01/30 06:27:34;;;;;;;12.10;8.70;;;3.60;99.90;;;;;;5008502;28;20370;-69
2024/01/30 06:30:01;;;;;;;12.30;9.93;;;3.60;99.90;;;;;;5015542;28;20611;-69
2024/01/30 06:32:28;;;;;;;11.13;9.20;;;3.60;99.90;;;;;;5016112;28;20175;-69
2024/01/30 06:34:54;;;;;;;13.30;10.17;;;3.60;99.90;;;;;;5014190;28;20438;-69
2024/01/30 06:37:19;;;;;;;12.17;9.97;;;3.60;99.90;;;;;;5014580;28;20445;-70
2024/01/30 06:39:45;;;;;;;13.10;9.60;;;3.50;99.90;;;;;;5010519;28;20186;-69
2024/01/30 06:42:11;;;;;;;14.03;9.87;;;3.50;99.90;;;;;;5015112;28;20182;-69
2024/01/30 06:44:37;;;;;;;13.57;10.87;;;3.40;99.90;;;;;;5013748;28;20179;-69
2024/01/30 06:47:02;;;;;;;12.73;9.70;;;3.40;99.90;;;;;;5013846;28;20624;-69
2024/01/30 06:49:28;;;;;;;13.17;9.37;;;3.40;99.90;;;;;;5013494;28;20187;-69
2024/01/30 06:51:53;;;;;;;10.90;9.40;;;3.40;99.90;;;;;;5009826;28;20297;-69
2024/01/30 06:54:19;;;;;;;12.33;9.87;;;3.40;99.90;;;;;;5018801;28;20314;-69
2024/01/30 06:56:44;;;;;;;12.20;10.20;;;3.50;99.90;;;;;;5010661;28;20348;-69
2024/01/30 06:59:10;;;;;;;15.00;11.10;;;3.50;99.90;;;;;;5020049;28;20175;-69
2024/01/30 07:01:35;;;;;;;21.00;13.73;;;3.50;99.90;;;;;;5013746;28;20187;-69
2024/01/30 07:04:01;;;;;;;14.77;10.90;;;3.60;99.90;;;;;;5013743;28;20266;-70
2024/01/30 07:06:26;;;;;;;11.70;9.43;;;3.60;99.90;;;;;;5011312;28;20241;-69
2024/01/30 07:08:52;;;;;;;18.30;10.23;;;3.60;99.90;;;;;;5012807;28;20656;-69
2024/01/30 07:11:22;;;;;;;11.40;9.87;;;3.60;99.90;;;;;;5010769;28;20207;-69
2024/01/30 07:13:48;;;;;;;11.97;9.97;;;3.70;99.90;;;;;;5011195;28;20189;-69
2024/01/30 07:16:14;;;;;;;12.40;9.37;;;3.70;99.90;;;;;;5011074;28;20468;-69
2024/01/30 07:18:40;;;;;;;20.57;11.30;;;3.80;99.90;;;;;;4998235;28;21374;-68
2024/01/30 07:21:05;;;;;;;11.27;9.50;;;3.80;99.90;;;;;;5011683;28;20436;-69
2024/01/30 07:23:31;;;;;;;11.33;9.63;;;3.90;99.90;;;;;;5012225;28;20350;-69
2024/01/30 07:25:57;;;;;;;11.67;10.37;;;4.00;99.90;;;;;;5030389;22;20206;-70
2024/01/30 07:28:22;;;;;;;10.97;9.83;;;4.10;99.90;;;;;;5029858;28;20697;-68
2024/01/30 07:30:48;;;;;;;12.47;9.60;;;4.30;99.90;;;;;;5028964;28;20742;-68
2024/01/30 07:33:14;;;;;;;15.30;9.60;;;4.40;99.90;;;;;;5033523;28;20166;-68
2024/01/30 07:35:40;;;;;;;11.83;9.80;;;4.60;99.90;;;;;;5032794;28;20944;-68
2024/01/30 07:38:05;;;;;;;12.03;10.73;;;5.00;99.90;;;;;;5032996;28;20225;-68
2024/01/30 07:40:32;;;;;;;13.27;10.07;;;5.30;99.90;;;;;;5013565;28;20175;-68
2024/01/30 07:42:57;;;;;;;10.17;9.10;;;5.40;99.90;;;;;;5013483;28;20546;-68
2024/01/30 07:45:24;;;;;;;11.93;10.40;;;5.60;99.90;;;;;;5013817;28;20434;-68
2024/01/30 07:47:50;;;;;;;12.23;10.17;;;5.70;99.90;;;;;;5013213;28;20194;-68
2024/01/30 07:50:16;;;;;;;13.50;10.00;;;5.60;99.90;;;;;;5013300;28;20942;-68
2024/01/30 07:52:42;;;;;;;13.57;12.03;;;5.50;99.90;;;;;;5013508;28;20421;-68
2024/01/30 07:55:08;;;;;;;12.97;11.27;;;5.50;99.90;;;;;;5025458;28;20604;-69
2024/01/30 07:57:34;;;;;;;17.50;12.97;;;5.40;99.90;;;;;;5032902;28;20436;-68
2024/01/30 08:00:00;;;;;;;13.47;11.03;;;5.50;99.90;;;;;;5023253;28;20206;-68
2024/01/30 08:02:25;;;;;;;17.50;12.47;;;5.50;99.90;;;;;;5013374;28;20671;-68
2024/01/30 08:04:51;;;;;;;16.10;13.33;;;5.70;99.90;;;;;;5012977;28;20447;-68
2024/01/30 08:07:17;;;;;;;12.10;10.90;;;5.90;99.90;;;;;;5013165;28;20211;-68
2024/01/30 08:09:43;;;;;;;14.97;11.67;;;6.10;99.90;;;;;;5013249;28;20174;-69
2024/01/30 08:12:09;;;;;;;14.40;11.07;;;6.20;99.90;;;;;;5013124;28;20422;-68
2024/01/30 08:14:34;;;;;;;11.20;10.10;;;6.40;99.90;;;;;;5017230;28;20431;-68
2024/01/30 08:17:00;;;;;;;13.90;11.50;;;6.60;99.90;;;;;;5032408;28;20198;-68
2024/01/30 08:19:25;;;;;;;15.97;12.40;;;7.10;99.90;;;;;;5032679;28;20166;-68
2024/01/30 08:21:51;;;;;;;15.70;12.10;;;7.60;99.90;;;;;;5032422;28;20233;-68
2024/01/30 08:24:16;;;;;;;16.17;10.80;;;8.60;99.90;;;;;;5030796;28;20178;-69
2024/01/30 08:26:42;;;;;;;15.63;10.90;;;9.50;99.90;;;;;;5017332;28;20300;-69
2024/01/30 08:29:07;;;;;;;12.40;10.63;;;10.50;99.90;;;;;;5032350;28;20178;-69
2024/01/30 08:31:33;;;;;;;13.43;11.30;;;11.00;99.90;;;;;;5013937;28;20210;-69
2024/01/30 08:33:58;;;;;;;13.97;12.00;;;11.80;99.90;;;;;;5012770;28;20532;-69
2024/01/30 08:36:25;;;;;;;14.50;12.30;;;12.70;99.90;;;;;;5012528;28;20202;-69
2024/01/30 08:38:50;;;;;;;14.90;13.33;;;13.10;99.90;;;;;;4993121;28;20172;-69
2024/01/30 08:41:16;;;;;;;15.90;14.50;;;13.50;98.50;;;;;;4991609;28;20423;-69
2024/01/30 08:43:41;;;;;;;13.63;12.33;;;14.30;96.00;;;;;;4993089;28;20175;-69
2024/01/30 08:46:07;;;;;;;13.30;11.47;;;14.70;94.00;;;;;;5007320;28;20590;-69
2024/01/30 08:48:32;;;;;;;11.90;10.80;;;14.70;92.30;;;;;;5012534;28;20186;-69
2024/01/30 08:50:58;;;;;;;12.80;11.50;;;14.60;91.30;;;;;;5012448;28;20202;-69
2024/01/30 08:53:24;;;;;;;13.73;11.90;;;14.30;90.80;;;;;;5012571;28;20175;-69
2024/01/30 08:55:50;;;;;;;13.47;11.63;;;14.20;90.90;;;;;;5022339;28;20181;-69
2024/01/30 08:58:18;;;;;;;13.50;12.10;;;14.10;92.10;;;;;;5031862;28;20409;-69
2024/01/30 09:00:43;;;;;;;14.10;10.77;;;13.20;93.00;;;;;;5024404;28;20253;-69
2024/01/30 09:03:09;;;;;;;12.43;11.23;;;13.10;93.50;;;;;;5012435;28;20417;-69
2024/01/30 09:05:34;;;;;;;11.83;10.20;;;13.50;93.00;;;;;;5012475;28;20209;-69
2024/01/30 09:08:00;;;;;;;11.83;10.83;;;13.90;91.80;;;;;;5020842;28;20205;-69
2024/01/30 09:10:25;;;;;;;14.53;10.93;;;14.00;92.00;;;;;;5031877;28;20702;-69
2024/01/30 09:12:51;;;;;;;11.93;10.93;;;14.20;91.30;;;;;;5031976;28;20181;-69
2024/01/30 09:15:16;;;;;;;11.70;10.77;;;14.90;90.40;;;;;;5029221;28;20158;-69
2024/01/30 09:17:42;;;;;;;13.47;11.93;;;15.60;86.40;;;;;;5011870;28;20233;-69
2024/01/30 09:20:09;;;;;;;13.20;11.90;;;16.30;82.60;;;;;;5011713;28;20170;-69
2024/01/30 09:22:34;;;;;;;13.30;11.90;;;16.30;78.40;;;;;;5012132;28;20182;-69
2024/01/30 09:25:00;;;;;;;15.67;10.73;;;16.00;78.40;;;;;;5012141;28;20430;-69
2024/01/30 09:27:26;;;;;;;12.50;11.37;;;14.80;79.90;;;;;;5030792;28;20220;-68
2024/01/30 09:29:51;;;;;;;19.13;13.27;;;13.80;85.10;;;;;;5024459;28;20179;-69
2024/01/30 09:32:17;;;;;;;12.30;10.67;;;14.00;86.70;;;;;;5012279;28;20519;-69
2024/01/30 09:34:43;;;;;;;12.70;10.83;;;15.30;84.10;;;;;;5012034;28;20630;-69
2024/01/30 09:37:08;;;;;;;13.03;10.30;;;16.20;78.50;;;;;;5011975;28;20446;-69
2024/01/30 09:39:34;;;;;;;14.50;11.33;;;16.80;75.70;;;;;;5011930;28;20715;-69
2024/01/30 09:42:09;;;;;;;12.90;11.57;;;16.60;75.10;;;;;;5012013;28;20191;-69
2024/01/30 09:44:36;;;;;;;12.73;10.83;;;16.30;76.30;;;;;;5011982;28;20202;-69
2024/01/30 09:47:05;;;;;;;13.80;12.57;;;16.20;76.50;;;;;;5023531;28;20449;-69
2024/01/30 09:49:37;;;;;;;12.40;10.67;;;16.00;76.60;;;;;;5016825;28;20422;-69
2024/01/30 09:52:05;;;;;;;12.00;11.00;;;15.90;77.70;;;;;;5011694;28;20425;-69
2024/01/30 09:54:31;;;;;;;15.67;10.80;;;16.10;76.60;;;;;;5012017;28;20437;-69
2024/01/30 09:56:57;;;;;;;13.63;11.30;;;16.50;76.00;;;;;;5011773;28;20441;-69
2024/01/30 09:59:23;;;;;;;11.60;10.47;;;17.00;75.60;;;;;;5011792;28;20493;-69
2024/01/30 10:01:50;;;;;;;12.57;9.40;;;17.40;73.20;;;;;;5012140;28;20504;-69
2024/01/30 10:04:15;;;;;;;13.20;11.67;;;17.50;70.90;;;;;;5011802;28;20179;-70
2024/01/30 10:06:42;;;;;;;12.93;11.53;;;17.50;70.20;;;;;;5011314;28;20444;-69
2024/01/30 10:09:08;;;;;;;11.30;10.40;;;17.30;71.80;;;;;;5025320;28;20236;-69
2024/01/30 10:11:35;;;;;;;11.77;10.57;;;17.10;73.10;;;;;;5012871;28;20465;-69
2024/01/30 10:14:00;;;;;;;10.23;9.33;;;16.80;73.20;;;;;;5011389;28;20422;-69
2024/01/30 10:16:26;;;;;;;12.50;10.67;;;16.50;74.70;;;;;;5011589;28;20218;-69
2024/01/30 10:18:51;;;;;;;10.60;9.50;;;16.20;74.80;;;;;;5011604;28;20182;-68
2024/01/30 10:21:17;;;;;;;11.13;10.13;;;16.00;76.90;;;;;;5011545;28;20218;-71
2024/01/30 10:23:46;;;;;;;11.40;10.30;;;15.70;79.30;;;;;;5011638;28;20585;-70
2024/01/30 10:26:11;;;;;;;12.30;9.60;;;15.60;79.20;;;;;;5011644;28;20445;-71
2024/01/30 10:28:37;;;;;;;13.43;12.10;;;15.60;79.30;;;;;;5014919;28;20425;-70
2024/01/30 10:31:03;;;;;;;13.90;11.50;;;15.50;81.10;;;;;;5014963;28;20932;-71
2024/01/30 10:33:29;;;;;;;8.00;7.20;;;15.50;80.80;;;;;;5031784;28;20249;-71
2024/01/30 10:36:04;;;;;;;5.27;4.87;;;15.20;77.20;;;;;;5034110;28;20944;-70
2024/01/30 10:38:31;;;;;;;5.33;4.93;;;14.20;75.90;;;;;;5029883;28;20417;-71
2024/01/30 10:40:58;;;;;;;11.70;7.57;;;13.60;78.50;;;;;;5014918;28;20911;-70
2024/01/30 10:43:31;;;;;;;10.93;4.60;;;13.70;88.80;;;;;;5014440;28;20484;-68
2024/01/30 10:45:59;;;;;;;6.37;3.80;;;14.00;80.00;;;;;;5014801;28;20820;-67
2024/01/30 10:48:30;;;;;;;4.93;3.70;;;13.70;80.20;;;;;;5014626;28;20432;-69
2024/01/30 10:50:57;;;;;;;5.00;4.00;;;13.70;82.10;;;;;;5014660;28;20454;-68
2024/01/30 10:53:23;;;;;;;9.33;7.73;;;13.60;79.70;;;;;;5014641;28;20422;-69
2024/01/30 10:55:51;;;;;;;6.23;4.80;;;13.60;80.10;;;;;;5014546;28;20414;-67
2024/01/30 10:58:17;;;;;;;3.43;3.13;;;13.60;80.50;;;;;;5027326;28;20504;-69
2024/01/30 11:00:43;;;;;;;7.40;4.00;;;13.80;79.30;;;;;;5034311;28;20515;-70
2024/01/30 11:03:09;;;;;;;4.97;4.50;;;13.90;80.60;;;;;;5022999;28;20426;-66
2024/01/30 11:05:34;;;;;;;10.63;3.70;;;14.20;78.30;;;;;;5014462;28;20421;-67
2024/01/30 11:08:12;;;;;;;3.83;3.53;;;14.20;77.40;;;;;;5023853;28;20286;-67
2024/01/30 11:10:47;;;;;;;10.90;4.80;;;14.30;78.50;;;;;;5034232;28;20226;-70
2024/01/30 11:13:16;;;;;;;4.27;3.87;;;14.40;79.80;;;;;;5033779;28;20440;-70
2024/01/30 11:15:41;;;;;;;5.47;3.40;;;14.40;77.60;;;;;;5027912;28;20426;-70
2024/01/30 11:18:07;;;;;;;7.40;3.67;;;14.40;77.30;;;;;;5012418;28;20451;-70
2024/01/30 11:20:35;;;;;;;4.13;3.77;;;14.30;76.80;;;;;;5013814;28;20625;-70
2024/01/30 11:23:07;;;;;;;4.30;3.77;;;14.30;77.60;;;;;;5013984;28;20168;-70
2024/01/30 11:25:34;;;;;;;6.10;3.57;;;14.40;77.60;;;;;;5013946;28;20420;-69
2024/01/30 11:27:59;;;;;;;4.70;4.30;;;14.60;77.40;;;;;;5013718;28;20457;-70
2024/01/30 11:30:27;;;;;;;4.27;3.87;;;14.80;77.00;;;;;;5013914;28;20522;-70
2024/01/30 11:33:00;;;;;;;4.50;4.20;;;15.00;75.40;;;;;;5018214;28;20216;-70
2024/01/30 11:35:25;;;;;;;8.17;4.30;;;15.10;73.70;;;;;;5033708;28;21044;-69
2024/01/30 11:37:51;;;;;;;5.10;4.60;;;15.10;74.50;;;;;;5032812;28;20520;-70
2024/01/30 11:40:17;;;;;;;6.37;3.60;;;15.00;75.90;;;;;;5024907;28;20171;-70
2024/01/30 11:42:43;;;;;;;4.37;3.80;;;14.80;75.40;;;;;;5013598;28;20541;-70
2024/01/30 11:45:09;;;;;;;3.77;3.43;;;15.00;75.40;;;;;;5014780;28;20175;-70
2024/01/30 11:47:37;;;;;;;4.20;3.80;;;14.80;75.60;;;;;;5027316;28;20813;-70
2024/01/30 11:50:06;;;;;;;4.63;3.83;;;14.60;76.80;;;;;;5013334;28;20195;-70
2024/01/30 11:52:33;;;;;;;7.50;4.00;;;14.50;76.90;;;;;;5013518;28;20413;-70
2024/01/30 11:55:00;;;;;;;5.03;4.03;;;14.80;76.80;;;;;;5013368;28;20436;-70
2024/01/30 11:57:27;;;;;;;3.73;3.43;;;15.00;75.60;;;;;;5016312;28;20456;-70
2024/01/30 11:59:52;;;;;;;4.13;3.43;;;15.10;74.30;;;;;;5033012;28;20500;-70
2024/01/30 12:02:18;;;;;;;5.60;4.10;;;15.00;74.70;;;;;;5031640;28;20499;-70
2024/01/30 12:04:44;;;;;;;6.53;3.57;;;15.00;74.90;;;;;;5013165;28;20179;-70
2024/01/30 12:07:10;;;;;;;8.50;4.10;;;15.00;74.70;;;;;;5012814;28;20202;-70
2024/01/30 12:09:36;;;;;;;5.13;3.60;;;14.90;75.10;;;;;;5030760;28;20455;-70
2024/01/30 12:12:01;;;;;;;7.10;4.43;;;14.80;75.50;;;;;;5028797;28;20458;-71
2024/01/30 12:14:27;;;;;;;5.80;3.70;;;14.40;76.10;;;;;;5013055;28;20656;-70
2024/01/30 12:16:53;;;;;;;7.10;4.20;;;14.40;77.30;;;;;;5012201;28;20241;-70
2024/01/30 12:19:23;;;;;;;3.93;3.63;;;14.30;77.10;;;;;;5012985;28;20179;-70
2024/01/30 12:21:58;;;;;;;4.40;4.00;;;14.40;78.40;;;;;;5012874;28;20183;-69
2024/01/30 12:24:25;;;;;;;8.43;3.63;;;14.50;77.10;;;;;;5013324;28;20439;-70
2024/01/30 12:26:51;;;;;;;4.17;3.77;;;14.50;77.50;;;;;;5012545;28;20468;-70
2024/01/30 12:29:17;;;;;;;6.83;3.97;;;14.60;77.70;;;;;;5012852;28;20632;-70
2024/01/30 12:31:43;;;;;;;5.77;4.13;;;14.70;76.70;;;;;;5012650;28;20581;-70
2024/01/30 12:34:09;;;;;;;4.23;3.73;;;14.70;77.50;;;;;;5024817;28;20174;-70
2024/01/30 12:36:35;;;;;;;4.33;4.00;;;14.80;75.80;;;;;;5032046;28;20797;-70
2024/01/30 12:39:01;;;;;;;4.03;3.70;;;14.90;75.80;;;;;;5032391;28;20178;-70
2024/01/30 12:41:29;;;;;;;7.70;4.27;;;15.20;74.40;;;;;;5017461;28;20241;-70